sensor_id;sensor_type;location;lat;lon;timestamp;P1;durP1;ratioP1;P2;durP2;ratioP2
6426;SDS011;3246;42.664;23.308;2024-03-23T00:55:38;21.50;;;12.20;;
6426;SDS011;3246;42.664;23.308;2024-03-23T00:58:05;16.53;;;10.87;;
6426;SDS011;3246;42.664;23.308;2024-03-23T01:00:31;24.13;;;12.37;;
6426;SDS011;3246;42.664;23.308;2024-03-23T01:02:58;23.20;;;12.03;;
6426;SDS011;3246;42.664;23.308;2024-03-23T01:05:24;15.97;;;11.67;;
6426;SDS011;3246;42.664;23.308;2024-03-23T01:07:50;17.50;;;11.10;;
6426;SDS011;3246;42.664;23.308;2024-03-23T01:10:16;22.27;;;12.97;;
6426;SDS011;3246;42.664;23.308;2024-03-23T01:12:44;17.67;;;12.67;;
6426;SDS011;3246;42.664;23.308;2024-03-23T01:15:11;20.40;;;13.33;;
6426;SDS011;3246;42.664;23.308;2024-03-23T01:17:38;18.60;;;11.60;;
6426;SDS011;3246;42.664;23.308;2024-03-23T01:20:04;18.70;;;12.60;;
6426;SDS011;3246;42.664;23.308;2024-03-23T01:22:31;17.87;;;11.77;;
6426;SDS011;3246;42.664;23.308;2024-03-23T01:24:58;20.13;;;12.97;;
6426;SDS011;3246;42.664;23.308;2024-03-23T01:27:24;20.03;;;11.53;;
6426;SDS011;3246;42.664;23.308;2024-03-23T01:29:52;19.80;;;12.90;;
6426;SDS011;3246;42.664;23.308;2024-03-23T01:32:19;14.93;;;10.67;;
6426;SDS011;3246;42.664;23.308;2024-03-23T01:34:45;15.00;;;8.67;;
6426;SDS011;3246;42.664;23.308;2024-03-23T01:37:12;9.67;;;8.30;;
6426;SDS011;3246;42.664;23.308;2024-03-23T01:39:38;16.93;;;11.87;;
6426;SDS011;3246;42.664;23.308;2024-03-23T01:42:04;19.23;;;10.83;;
6426;SDS011;3246;42.664;23.308;2024-03-23T01:44:30;14.60;;;10.17;;
6426;SDS011;3246;42.664;23.308;2024-03-23T01:46:59;16.63;;;11.90;;
6426;SDS011;3246;42.664;23.308;2024-03-23T01:49:24;17.30;;;11.83;;
6426;SDS011;3246;42.664;23.308;2024-03-23T01:51:52;13.63;;;9.63;;
6426;SDS011;3246;42.664;23.308;2024-03-23T01:54:18;20.37;;;9.90;;
6426;SDS011;3246;42.664;23.308;2024-03-23T01:56:45;16.23;;;9.77;;
6426;SDS011;3246;42.664;23.308;2024-03-23T01:59:11;16.50;;;10.60;;
6426;SDS011;3246;42.664;23.308;2024-03-23T02:01:39;16.87;;;9.20;;
6426;SDS011;3246;42.664;23.308;2024-03-23T02:04:06;12.37;;;9.40;;
6426;SDS011;3246;42.664;23.308;2024-03-23T02:06:34;15.57;;;9.23;;
6426;SDS011;3246;42.664;23.308;2024-03-23T02:09:00;11.23;;;9.73;;
6426;SDS011;3246;42.664;23.308;2024-03-23T02:11:27;17.23;;;9.57;;
6426;SDS011;3246;42.664;23.308;2024-03-23T02:13:53;13.67;;;9.33;;
6426;SDS011;3246;42.664;23.308;2024-03-23T02:16:19;17.83;;;11.03;;
6426;SDS011;3246;42.664;23.308;2024-03-23T02:18:45;17.30;;;11.87;;
6426;SDS011;3246;42.664;23.308;2024-03-23T02:21:13;16.17;;;9.80;;
6426;SDS011;3246;42.664;23.308;2024-03-23T02:23:42;19.27;;;10.50;;
6426;SDS011;3246;42.664;23.308;2024-03-23T02:26:08;17.43;;;12.20;;
6426;SDS011;3246;42.664;23.308;2024-03-23T02:28:34;17.27;;;12.10;;
6426;SDS011;3246;42.664;23.308;2024-03-23T02:31:01;16.20;;;11.37;;
6426;SDS011;3246;42.664;23.308;2024-03-23T02:33:27;15.23;;;11.47;;
6426;SDS011;3246;42.664;23.308;2024-03-23T02:35:55;14.30;;;10.83;;
6426;SDS011;3246;42.664;23.308;2024-03-23T02:38:22;17.63;;;11.77;;
6426;SDS011;3246;42.664;23.308;2024-03-23T02:40:50;17.43;;;11.03;;
6426;SDS011;3246;42.664;23.308;2024-03-23T02:43:16;31.00;;;11.43;;
6426;SDS011;3246;42.664;23.308;2024-03-23T02:45:43;13.87;;;10.50;;
6426;SDS011;3246;42.664;23.308;2024-03-23T02:48:09;15.00;;;10.70;;
6426;SDS011;3246;42.664;23.308;2024-03-23T02:50:36;14.23;;;9.73;;
6426;SDS011;3246;42.664;23.308;2024-03-23T02:53:01;15.57;;;10.27;;
6426;SDS011;3246;42.664;23.308;2024-03-23T02:55:28;14.73;;;9.40;;
6426;SDS011;3246;42.664;23.308;2024-03-23T02:57:56;11.47;;;9.47;;
6426;SDS011;3246;42.664;23.308;2024-03-23T03:00:26;11.67;;;10.07;;
6426;SDS011;3246;42.664;23.308;2024-03-23T03:02:53;13.10;;;9.77;;
6426;SDS011;3246;42.664;23.308;2024-03-23T03:05:19;14.30;;;9.37;;
6426;SDS011;3246;42.664;23.308;2024-03-23T03:07:45;15.47;;;10.67;;
6426;SDS011;3246;42.664;23.308;2024-03-23T03:10:12;12.63;;;9.70;;
6426;SDS011;3246;42.664;23.308;2024-03-23T03:12:38;15.60;;;10.03;;
6426;SDS011;3246;42.664;23.308;2024-03-23T03:15:07;18.17;;;9.57;;
6426;SDS011;3246;42.664;23.308;2024-03-23T03:17:34;17.70;;;10.80;;
6426;SDS011;3246;42.664;23.308;2024-03-23T03:20:01;10.57;;;8.63;;
6426;SDS011;3246;42.664;23.308;2024-03-23T03:22:27;14.20;;;10.07;;
6426;SDS011;3246;42.664;23.308;2024-03-23T03:24:54;12.20;;;9.10;;
6426;SDS011;3246;42.664;23.308;2024-03-23T03:27:20;10.90;;;8.37;;
6426;SDS011;3246;42.664;23.308;2024-03-23T03:29:47;10.67;;;8.57;;
6426;SDS011;3246;42.664;23.308;2024-03-23T03:32:15;12.50;;;10.13;;
6426;SDS011;3246;42.664;23.308;2024-03-23T03:34:41;11.63;;;9.17;;
6426;SDS011;3246;42.664;23.308;2024-03-23T03:37:07;13.07;;;9.27;;
6426;SDS011;3246;42.664;23.308;2024-03-23T03:39:34;11.03;;;8.30;;
6426;SDS011;3246;42.664;23.308;2024-03-23T03:42:00;10.47;;;8.03;;
6426;SDS011;3246;42.664;23.308;2024-03-23T03:44:29;10.37;;;8.27;;
6426;SDS011;3246;42.664;23.308;2024-03-23T03:46:54;12.40;;;8.10;;
6426;SDS011;3246;42.664;23.308;2024-03-23T03:49:23;15.73;;;8.80;;
6426;SDS011;3246;42.664;23.308;2024-03-23T03:51:48;13.23;;;8.87;;
6426;SDS011;3246;42.664;23.308;2024-03-23T03:54:15;15.70;;;8.13;;
6426;SDS011;3246;42.664;23.308;2024-03-23T03:56:41;10.97;;;8.33;;
6426;SDS011;3246;42.664;23.308;2024-03-23T03:59:08;10.37;;;8.83;;
6426;SDS011;3246;42.664;23.308;2024-03-23T04:01:34;12.23;;;8.10;;
6426;SDS011;3246;42.664;23.308;2024-03-23T04:04:01;9.30;;;8.23;;
6426;SDS011;3246;42.664;23.308;2024-03-23T04:06:28;11.97;;;8.50;;
6426;SDS011;3246;42.664;23.308;2024-03-23T04:08:55;14.73;;;8.73;;
6426;SDS011;3246;42.664;23.308;2024-03-23T04:11:21;13.83;;;9.73;;
6426;SDS011;3246;42.664;23.308;2024-03-23T04:13:47;13.83;;;9.40;;
6426;SDS011;3246;42.664;23.308;2024-03-23T04:16:19;14.43;;;8.97;;
6426;SDS011;3246;42.664;23.308;2024-03-23T04:18:51;13.17;;;8.93;;
6426;SDS011;3246;42.664;23.308;2024-03-23T04:21:17;9.87;;;8.00;;
6426;SDS011;3246;42.664;23.308;2024-03-23T04:23:45;12.13;;;8.43;;
6426;SDS011;3246;42.664;23.308;2024-03-23T04:26:11;10.93;;;8.77;;
6426;SDS011;3246;42.664;23.308;2024-03-23T04:28:37;13.03;;;9.13;;
6426;SDS011;3246;42.664;23.308;2024-03-23T04:31:03;11.47;;;8.97;;
6426;SDS011;3246;42.664;23.308;2024-03-23T04:33:30;11.30;;;9.37;;
6426;SDS011;3246;42.664;23.308;2024-03-23T04:35:56;15.63;;;8.90;;
6426;SDS011;3246;42.664;23.308;2024-03-23T04:38:23;14.23;;;9.27;;
6426;SDS011;3246;42.664;23.308;2024-03-23T04:40:55;12.37;;;8.33;;
6426;SDS011;3246;42.664;23.308;2024-03-23T04:43:22;11.17;;;8.47;;
6426;SDS011;3246;42.664;23.308;2024-03-23T04:45:48;12.63;;;7.97;;
6426;SDS011;3246;42.664;23.308;2024-03-23T04:48:15;11.00;;;8.63;;
6426;SDS011;3246;42.664;23.308;2024-03-23T04:50:42;15.53;;;9.13;;
6426;SDS011;3246;42.664;23.308;2024-03-23T04:53:09;11.03;;;8.57;;
6426;SDS011;3246;42.664;23.308;2024-03-23T04:55:35;14.43;;;10.17;;
6426;SDS011;3246;42.664;23.308;2024-03-23T04:58:04;15.73;;;9.90;;
6426;SDS011;3246;42.664;23.308;2024-03-23T05:00:29;11.83;;;9.17;;
6426;SDS011;3246;42.664;23.308;2024-03-23T05:02:56;19.53;;;9.53;;
6426;SDS011;3246;42.664;23.308;2024-03-23T05:05:22;13.27;;;9.23;;
6426;SDS011;3246;42.664;23.308;2024-03-23T05:07:49;12.10;;;8.70;;
6426;SDS011;3246;42.664;23.308;2024-03-23T05:10:15;12.33;;;7.73;;
6426;SDS011;3246;42.664;23.308;2024-03-23T05:12:42;18.27;;;7.97;;
6426;SDS011;3246;42.664;23.308;2024-03-23T05:15:11;12.30;;;8.30;;
6426;SDS011;3246;42.664;23.308;2024-03-23T05:17:38;11.17;;;8.03;;
6426;SDS011;3246;42.664;23.308;2024-03-23T05:20:04;13.32;;;9.13;;
6426;SDS011;3246;42.664;23.308;2024-03-23T05:22:34;13.60;;;9.50;;
6426;SDS011;3246;42.664;23.308;2024-03-23T05:25:00;14.40;;;10.17;;
6426;SDS011;3246;42.664;23.308;2024-03-23T05:27:30;17.60;;;10.70;;
6426;SDS011;3246;42.664;23.308;2024-03-23T05:29:56;17.70;;;9.70;;
6426;SDS011;3246;42.664;23.308;2024-03-23T05:32:24;16.80;;;9.33;;
6426;SDS011;3246;42.664;23.308;2024-03-23T05:34:50;10.03;;;7.77;;
6426;SDS011;3246;42.664;23.308;2024-03-23T05:37:21;13.87;;;9.13;;
6426;SDS011;3246;42.664;23.308;2024-03-23T05:39:46;9.40;;;8.13;;
6426;SDS011;3246;42.664;23.308;2024-03-23T05:42:15;11.97;;;9.07;;
6426;SDS011;3246;42.664;23.308;2024-03-23T05:44:42;10.57;;;8.00;;
6426;SDS011;3246;42.664;23.308;2024-03-23T05:47:09;14.50;;;8.93;;
6426;SDS011;3246;42.664;23.308;2024-03-23T05:49:37;14.77;;;9.10;;
6426;SDS011;3246;42.664;23.308;2024-03-23T05:52:04;12.70;;;8.10;;
6426;SDS011;3246;42.664;23.308;2024-03-23T05:54:30;12.63;;;10.40;;
6426;SDS011;3246;42.664;23.308;2024-03-23T05:56:57;14.20;;;9.40;;
6426;SDS011;3246;42.664;23.308;2024-03-23T05:59:22;12.27;;;8.90;;
6426;SDS011;3246;42.664;23.308;2024-03-23T06:01:49;11.50;;;8.77;;
6426;SDS011;3246;42.664;23.308;2024-03-23T06:04:15;11.67;;;9.93;;
6426;SDS011;3246;42.664;23.308;2024-03-23T06:06:43;13.70;;;10.20;;
6426;SDS011;3246;42.664;23.308;2024-03-23T06:09:09;12.63;;;8.67;;
6426;SDS011;3246;42.664;23.308;2024-03-23T06:11:36;14.43;;;8.93;;
6426;SDS011;3246;42.664;23.308;2024-03-23T06:14:02;15.87;;;9.20;;
6426;SDS011;3246;42.664;23.308;2024-03-23T06:16:29;9.10;;;8.07;;
6426;SDS011;3246;42.664;23.308;2024-03-23T06:18:56;14.73;;;9.33;;
6426;SDS011;3246;42.664;23.308;2024-03-23T06:21:23;11.07;;;8.83;;
6426;SDS011;3246;42.664;23.308;2024-03-23T06:23:52;13.73;;;10.27;;
6426;SDS011;3246;42.664;23.308;2024-03-23T06:26:19;14.87;;;8.90;;
6426;SDS011;3246;42.664;23.308;2024-03-23T06:28:45;13.00;;;9.83;;
6426;SDS011;3246;42.664;23.308;2024-03-23T06:31:12;10.57;;;9.20;;
6426;SDS011;3246;42.664;23.308;2024-03-23T06:33:38;19.23;;;9.67;;
6426;SDS011;3246;42.664;23.308;2024-03-23T06:36:06;12.70;;;9.40;;
6426;SDS011;3246;42.664;23.308;2024-03-23T06:38:35;12.37;;;8.80;;
6426;SDS011;3246;42.664;23.308;2024-03-23T06:41:04;13.77;;;9.27;;
6426;SDS011;3246;42.664;23.308;2024-03-23T06:43:30;13.87;;;9.07;;
6426;SDS011;3246;42.664;23.308;2024-03-23T06:45:57;18.07;;;9.87;;
6426;SDS011;3246;42.664;23.308;2024-03-23T06:48:23;12.07;;;8.73;;
6426;SDS011;3246;42.664;23.308;2024-03-23T06:50:54;12.60;;;9.20;;
6426;SDS011;3246;42.664;23.308;2024-03-23T06:53:21;11.37;;;8.77;;
6426;SDS011;3246;42.664;23.308;2024-03-23T06:55:49;16.13;;;9.93;;
6426;SDS011;3246;42.664;23.308;2024-03-23T06:58:17;17.17;;;10.63;;
6426;SDS011;3246;42.664;23.308;2024-03-23T07:00:44;13.47;;;9.17;;
6426;SDS011;3246;42.664;23.308;2024-03-23T07:03:10;16.03;;;10.07;;
6426;SDS011;3246;42.664;23.308;2024-03-23T07:05:37;16.90;;;10.50;;
6426;SDS011;3246;42.664;23.308;2024-03-23T07:08:03;14.90;;;9.33;;
6426;SDS011;3246;42.664;23.308;2024-03-23T07:10:31;12.27;;;9.93;;
6426;SDS011;3246;42.664;23.308;2024-03-23T07:12:56;17.67;;;9.77;;
6426;SDS011;3246;42.664;23.308;2024-03-23T07:15:25;16.90;;;9.90;;
6426;SDS011;3246;42.664;23.308;2024-03-23T07:17:50;18.17;;;8.47;;
6426;SDS011;3246;42.664;23.308;2024-03-23T07:20:17;11.40;;;9.13;;
6426;SDS011;3246;42.664;23.308;2024-03-23T07:22:45;12.00;;;9.70;;
6426;SDS011;3246;42.664;23.308;2024-03-23T07:25:12;15.50;;;8.80;;
6426;SDS011;3246;42.664;23.308;2024-03-23T07:27:38;13.77;;;9.53;;
6426;SDS011;3246;42.664;23.308;2024-03-23T07:30:05;16.23;;;9.07;;
6426;SDS011;3246;42.664;23.308;2024-03-23T07:32:34;10.53;;;8.87;;
6426;SDS011;3246;42.664;23.308;2024-03-23T07:35:01;14.20;;;9.23;;
6426;SDS011;3246;42.664;23.308;2024-03-23T07:37:26;30.13;;;15.47;;
6426;SDS011;3246;42.664;23.308;2024-03-23T07:39:53;20.93;;;10.70;;
6426;SDS011;3246;42.664;23.308;2024-03-23T07:42:19;12.50;;;8.90;;
6426;SDS011;3246;42.664;23.308;2024-03-23T07:44:46;13.10;;;9.70;;
6426;SDS011;3246;42.664;23.308;2024-03-23T07:47:12;13.47;;;8.87;;
6426;SDS011;3246;42.664;23.308;2024-03-23T07:49:40;12.30;;;9.70;;
6426;SDS011;3246;42.664;23.308;2024-03-23T07:52:06;15.30;;;9.93;;
6426;SDS011;3246;42.664;23.308;2024-03-23T07:54:33;11.97;;;9.37;;
6426;SDS011;3246;42.664;23.308;2024-03-23T07:56:59;12.97;;;8.90;;
6426;SDS011;3246;42.664;23.308;2024-03-23T07:59:26;14.23;;;9.93;;
6426;SDS011;3246;42.664;23.308;2024-03-23T08:01:53;18.40;;;10.13;;
6426;SDS011;3246;42.664;23.308;2024-03-23T08:04:20;14.60;;;10.37;;
6426;SDS011;3246;42.664;23.308;2024-03-23T08:06:47;18.00;;;10.43;;
6426;SDS011;3246;42.664;23.308;2024-03-23T08:09:14;19.47;;;10.03;;
6426;SDS011;3246;42.664;23.308;2024-03-23T08:11:40;14.27;;;10.67;;
6426;SDS011;3246;42.664;23.308;2024-03-23T08:14:09;13.30;;;10.17;;
6426;SDS011;3246;42.664;23.308;2024-03-23T08:16:35;17.57;;;10.20;;
6426;SDS011;3246;42.664;23.308;2024-03-23T08:19:02;13.90;;;11.07;;
6426;SDS011;3246;42.664;23.308;2024-03-23T08:21:29;13.93;;;8.93;;
6426;SDS011;3246;42.664;23.308;2024-03-23T08:23:57;15.17;;;9.80;;
6426;SDS011;3246;42.664;23.308;2024-03-23T08:26:23;16.10;;;10.70;;
6426;SDS011;3246;42.664;23.308;2024-03-23T08:28:50;14.77;;;9.13;;
6426;SDS011;3246;42.664;23.308;2024-03-23T08:31:15;17.93;;;10.60;;
6426;SDS011;3246;42.664;23.308;2024-03-23T08:33:42;11.97;;;9.63;;
6426;SDS011;3246;42.664;23.308;2024-03-23T08:36:09;20.70;;;10.20;;
6426;SDS011;3246;42.664;23.308;2024-03-23T08:38:39;23.63;;;9.80;;
6426;SDS011;3246;42.664;23.308;2024-03-23T08:41:06;14.23;;;9.30;;
6426;SDS011;3246;42.664;23.308;2024-03-23T08:43:35;19.40;;;10.02;;
6426;SDS011;3246;42.664;23.308;2024-03-23T08:46:04;14.70;;;9.63;;
6426;SDS011;3246;42.664;23.308;2024-03-23T08:48:32;15.38;;;10.15;;
6426;SDS011;3246;42.664;23.308;2024-03-23T08:50:59;16.05;;;9.55;;
6426;SDS011;3246;42.664;23.308;2024-03-23T08:53:27;11.38;;;9.73;;
6426;SDS011;3246;42.664;23.308;2024-03-23T08:55:53;13.75;;;9.57;;
6426;SDS011;3246;42.664;23.308;2024-03-23T08:58:23;13.93;;;9.05;;
6426;SDS011;3246;42.664;23.308;2024-03-23T09:00:49;15.98;;;11.30;;
6426;SDS011;3246;42.664;23.308;2024-03-23T09:03:16;14.75;;;10.70;;
6426;SDS011;3246;42.664;23.308;2024-03-23T09:05:42;11.98;;;10.02;;
6426;SDS011;3246;42.664;23.308;2024-03-23T09:08:09;18.02;;;10.70;;
6426;SDS011;3246;42.664;23.308;2024-03-23T09:10:37;20.40;;;10.43;;
6426;SDS011;3246;42.664;23.308;2024-03-23T09:13:05;15.45;;;10.10;;
6426;SDS011;3246;42.664;23.308;2024-03-23T09:15:34;11.52;;;9.90;;
6426;SDS011;3246;42.664;23.308;2024-03-23T09:18:01;19.13;;;9.60;;
6426;SDS011;3246;42.664;23.308;2024-03-23T09:20:27;13.30;;;9.85;;
6426;SDS011;3246;42.664;23.308;2024-03-23T09:22:54;13.57;;;9.60;;
6426;SDS011;3246;42.664;23.308;2024-03-23T09:25:20;11.43;;;8.77;;
6426;SDS011;3246;42.664;23.308;2024-03-23T09:27:47;10.90;;;9.55;;
6426;SDS011;3246;42.664;23.308;2024-03-23T09:30:13;12.32;;;9.75;;
6426;SDS011;3246;42.664;23.308;2024-03-23T09:32:42;19.75;;;9.73;;
6426;SDS011;3246;42.664;23.308;2024-03-23T09:35:09;16.17;;;10.57;;
6426;SDS011;3246;42.664;23.308;2024-03-23T09:37:36;12.07;;;10.02;;
6426;SDS011;3246;42.664;23.308;2024-03-23T09:40:02;16.08;;;10.43;;
6426;SDS011;3246;42.664;23.308;2024-03-23T09:42:30;11.25;;;10.10;;
6426;SDS011;3246;42.664;23.308;2024-03-23T09:44:56;15.15;;;9.27;;
6426;SDS011;3246;42.664;23.308;2024-03-23T09:47:24;11.00;;;8.48;;
6426;SDS011;3246;42.664;23.308;2024-03-23T09:49:51;12.32;;;10.50;;
6426;SDS011;3246;42.664;23.308;2024-03-23T09:52:18;16.20;;;9.75;;
6426;SDS011;3246;42.664;23.308;2024-03-23T09:54:44;25.20;;;10.15;;
6426;SDS011;3246;42.664;23.308;2024-03-23T09:57:11;10.88;;;9.13;;
6426;SDS011;3246;42.664;23.308;2024-03-23T09:59:37;10.80;;;9.55;;
6426;SDS011;3246;42.664;23.308;2024-03-23T10:02:04;17.05;;;9.45;;
6426;SDS011;3246;42.664;23.308;2024-03-23T10:04:35;14.45;;;9.38;;
6426;SDS011;3246;42.664;23.308;2024-03-23T10:07:11;16.08;;;9.85;;
6426;SDS011;3246;42.664;23.308;2024-03-23T10:09:38;9.07;;;8.18;;
6426;SDS011;3246;42.664;23.308;2024-03-23T10:12:08;11.10;;;8.30;;
6426;SDS011;3246;42.664;23.308;2024-03-23T10:14:35;9.38;;;8.32;;
6426;SDS011;3246;42.664;23.308;2024-03-23T10:17:12;11.75;;;8.90;;
6426;SDS011;3246;42.664;23.308;2024-03-23T10:19:39;12.73;;;8.77;;
6426;SDS011;3246;42.664;23.308;2024-03-23T10:22:07;9.90;;;7.47;;
6426;SDS011;3246;42.664;23.308;2024-03-23T10:24:35;11.77;;;7.60;;
6426;SDS011;3246;42.664;23.308;2024-03-23T10:27:02;13.43;;;9.25;;
6426;SDS011;3246;42.664;23.308;2024-03-23T10:29:28;11.13;;;8.68;;
6426;SDS011;3246;42.664;23.308;2024-03-23T10:31:55;9.63;;;7.47;;
6426;SDS011;3246;42.664;23.308;2024-03-23T10:34:33;14.93;;;8.57;;
6426;SDS011;3246;42.664;23.308;2024-03-23T10:37:00;16.60;;;8.98;;
6426;SDS011;3246;42.664;23.308;2024-03-23T10:39:28;8.77;;;7.68;;
6426;SDS011;3246;42.664;23.308;2024-03-23T10:41:58;13.38;;;7.47;;
6426;SDS011;3246;42.664;23.308;2024-03-23T10:44:27;10.05;;;8.18;;
6426;SDS011;3246;42.664;23.308;2024-03-23T10:46:56;10.48;;;7.50;;
6426;SDS011;3246;42.664;23.308;2024-03-23T10:49:25;10.60;;;8.25;;
6426;SDS011;3246;42.664;23.308;2024-03-23T10:51:54;9.68;;;7.75;;
6426;SDS011;3246;42.664;23.308;2024-03-23T10:54:22;10.82;;;8.10;;
6426;SDS011;3246;42.664;23.308;2024-03-23T10:56:51;12.25;;;8.43;;
6426;SDS011;3246;42.664;23.308;2024-03-23T10:59:26;8.88;;;7.18;;
6426;SDS011;3246;42.664;23.308;2024-03-23T11:01:54;16.30;;;7.18;;
6426;SDS011;3246;42.664;23.308;2024-03-23T11:04:29;13.98;;;8.27;;
6426;SDS011;3246;42.664;23.308;2024-03-23T11:06:57;7.57;;;6.88;;
6426;SDS011;3246;42.664;23.308;2024-03-23T11:09:38;7.93;;;7.13;;
6426;SDS011;3246;42.664;23.308;2024-03-23T11:12:14;10.77;;;7.38;;
6426;SDS011;3246;42.664;23.308;2024-03-23T11:14:54;17.45;;;7.32;;
6426;SDS011;3246;42.664;23.308;2024-03-23T11:17:24;8.90;;;8.00;;
6426;SDS011;3246;42.664;23.308;2024-03-23T11:19:53;9.27;;;7.38;;
6426;SDS011;3246;42.664;23.308;2024-03-23T11:22:43;7.40;;;6.47;;
6426;SDS011;3246;42.664;23.308;2024-03-23T11:25:15;9.38;;;7.15;;
6426;SDS011;3246;42.664;23.308;2024-03-23T11:27:43;9.88;;;7.43;;
6426;SDS011;3246;42.664;23.308;2024-03-23T11:30:11;9.98;;;6.18;;
6426;SDS011;3246;42.664;23.308;2024-03-23T11:32:39;16.42;;;6.60;;
6426;SDS011;3246;42.664;23.308;2024-03-23T11:35:05;9.18;;;7.40;;
6426;SDS011;3246;42.664;23.308;2024-03-23T11:37:35;7.18;;;6.47;;
6426;SDS011;3246;42.664;23.308;2024-03-23T11:40:16;7.32;;;5.45;;
6426;SDS011;3246;42.664;23.308;2024-03-23T11:42:43;9.95;;;5.60;;
6426;SDS011;3246;42.664;23.308;2024-03-23T11:45:09;6.43;;;5.15;;
6426;SDS011;3246;42.664;23.308;2024-03-23T11:47:39;9.35;;;5.72;;
6426;SDS011;3246;42.664;23.308;2024-03-23T11:50:05;5.88;;;5.28;;
6426;SDS011;3246;42.664;23.308;2024-03-23T11:52:32;8.02;;;5.60;;
6426;SDS011;3246;42.664;23.308;2024-03-23T11:55:03;11.52;;;5.20;;
6426;SDS011;3246;42.664;23.308;2024-03-23T11:57:30;9.05;;;5.38;;
6426;SDS011;3246;42.664;23.308;2024-03-23T11:59:56;9.30;;;5.57;;
6426;SDS011;3246;42.664;23.308;2024-03-23T12:02:24;6.80;;;5.18;;
6426;SDS011;3246;42.664;23.308;2024-03-23T12:04:50;10.68;;;6.20;;
6426;SDS011;3246;42.664;23.308;2024-03-23T12:07:18;8.50;;;5.18;;
6426;SDS011;3246;42.664;23.308;2024-03-23T12:09:44;6.30;;;4.82;;
6426;SDS011;3246;42.664;23.308;2024-03-23T12:12:13;8.93;;;4.80;;
6426;SDS011;3246;42.664;23.308;2024-03-23T12:14:40;8.30;;;3.95;;
6426;SDS011;3246;42.664;23.308;2024-03-23T12:17:11;7.43;;;3.53;;
6426;SDS011;3246;42.664;23.308;2024-03-23T12:19:39;6.82;;;3.53;;
6426;SDS011;3246;42.664;23.308;2024-03-23T12:22:06;4.95;;;3.13;;
6426;SDS011;3246;42.664;23.308;2024-03-23T12:24:33;2.75;;;2.50;;
6426;SDS011;3246;42.664;23.308;2024-03-23T12:27:01;3.47;;;1.65;;
6426;SDS011;3246;42.664;23.308;2024-03-23T12:29:28;1.30;;;1.15;;
6426;SDS011;3246;42.664;23.308;2024-03-23T12:31:56;3.00;;;2.00;;
6426;SDS011;3246;42.664;23.308;2024-03-23T12:34:24;1.73;;;1.55;;
6426;SDS011;3246;42.664;23.308;2024-03-23T12:36:54;4.80;;;1.67;;
6426;SDS011;3246;42.664;23.308;2024-03-23T12:39:20;1.10;;;0.93;;
6426;SDS011;3246;42.664;23.308;2024-03-23T12:41:47;1.73;;;1.63;;
6426;SDS011;3246;42.664;23.308;2024-03-23T12:44:12;1.30;;;1.17;;
6426;SDS011;3246;42.664;23.308;2024-03-23T12:46:40;2.55;;;1.92;;
6426;SDS011;3246;42.664;23.308;2024-03-23T12:49:06;2.83;;;1.48;;
6426;SDS011;3246;42.664;23.308;2024-03-23T12:51:33;1.60;;;1.50;;
6426;SDS011;3246;42.664;23.308;2024-03-23T12:54:00;4.35;;;1.77;;
6426;SDS011;3246;42.664;23.308;2024-03-23T12:56:27;1.52;;;1.10;;
6426;SDS011;3246;42.664;23.308;2024-03-23T12:58:53;0.95;;;0.95;;
6426;SDS011;3246;42.664;23.308;2024-03-23T13:01:22;1.13;;;0.90;;
6426;SDS011;3246;42.664;23.308;2024-03-23T13:03:48;1.52;;;1.00;;
6426;SDS011;3246;42.664;23.308;2024-03-23T13:06:15;1.35;;;1.25;;
6426;SDS011;3246;42.664;23.308;2024-03-23T13:08:41;2.58;;;1.17;;
6426;SDS011;3246;42.664;23.308;2024-03-23T13:11:11;1.45;;;1.35;;
6426;SDS011;3246;42.664;23.308;2024-03-23T13:13:38;0.80;;;0.80;;
6426;SDS011;3246;42.664;23.308;2024-03-23T13:16:05;1.08;;;1.00;;
6426;SDS011;3246;42.664;23.308;2024-03-23T13:18:31;1.50;;;1.40;;
6426;SDS011;3246;42.664;23.308;2024-03-23T13:20:58;2.03;;;1.63;;
6426;SDS011;3246;42.664;23.308;2024-03-23T13:23:24;1.58;;;1.33;;
6426;SDS011;3246;42.664;23.308;2024-03-23T13:25:51;1.52;;;1.23;;
6426;SDS011;3246;42.664;23.308;2024-03-23T13:28:19;1.88;;;1.75;;
6426;SDS011;3246;42.664;23.308;2024-03-23T13:30:49;1.33;;;1.23;;
6426;SDS011;3246;42.664;23.308;2024-03-23T13:33:16;1.25;;;1.25;;
6426;SDS011;3246;42.664;23.308;2024-03-23T13:35:48;1.40;;;1.30;;
6426;SDS011;3246;42.664;23.308;2024-03-23T13:38:14;1.50;;;1.17;;
6426;SDS011;3246;42.664;23.308;2024-03-23T13:40:48;1.02;;;0.90;;
6426;SDS011;3246;42.664;23.308;2024-03-23T13:43:15;1.50;;;1.40;;
6426;SDS011;3246;42.664;23.308;2024-03-23T13:45:45;1.70;;;1.60;;
6426;SDS011;3246;42.664;23.308;2024-03-23T13:48:11;2.05;;;1.85;;
6426;SDS011;3246;42.664;23.308;2024-03-23T13:50:38;1.50;;;1.40;;
6426;SDS011;3246;42.664;23.308;2024-03-23T13:53:04;1.88;;;1.77;;
6426;SDS011;3246;42.664;23.308;2024-03-23T13:55:32;1.60;;;1.10;;
6426;SDS011;3246;42.664;23.308;2024-03-23T13:57:58;1.92;;;1.73;;
6426;SDS011;3246;42.664;23.308;2024-03-23T14:00:24;1.67;;;1.42;;
6426;SDS011;3246;42.664;23.308;2024-03-23T14:02:52;2.95;;;1.70;;
6426;SDS011;3246;42.664;23.308;2024-03-23T14:05:18;4.30;;;2.10;;
6426;SDS011;3246;42.664;23.308;2024-03-23T14:07:44;3.08;;;1.75;;
6426;SDS011;3246;42.664;23.308;2024-03-23T14:10:11;1.42;;;1.33;;
6426;SDS011;3246;42.664;23.308;2024-03-23T14:12:37;3.30;;;2.30;;
6426;SDS011;3246;42.664;23.308;2024-03-23T14:15:05;1.63;;;1.52;;
6426;SDS011;3246;42.664;23.308;2024-03-23T14:17:31;3.58;;;2.08;;
6426;SDS011;3246;42.664;23.308;2024-03-23T14:19:59;2.10;;;1.90;;
6426;SDS011;3246;42.664;23.308;2024-03-23T14:22:26;1.95;;;1.80;;
6426;SDS011;3246;42.664;23.308;2024-03-23T14:24:53;1.75;;;1.65;;
6426;SDS011;3246;42.664;23.308;2024-03-23T14:27:19;2.83;;;2.42;;
6426;SDS011;3246;42.664;23.308;2024-03-23T14:29:46;3.47;;;3.17;;
6426;SDS011;3246;42.664;23.308;2024-03-23T14:32:12;3.35;;;2.25;;
6426;SDS011;3246;42.664;23.308;2024-03-23T14:34:39;3.72;;;2.40;;
6426;SDS011;3246;42.664;23.308;2024-03-23T14:37:07;1.90;;;1.80;;
6426;SDS011;3246;42.664;23.308;2024-03-23T14:39:33;2.97;;;2.30;;
6426;SDS011;3246;42.664;23.308;2024-03-23T14:41:59;5.53;;;2.33;;
6426;SDS011;3246;42.664;23.308;2024-03-23T14:44:27;2.67;;;2.47;;
6426;SDS011;3246;42.664;23.308;2024-03-23T14:46:53;2.17;;;1.90;;
6426;SDS011;3246;42.664;23.308;2024-03-23T14:49:20;2.35;;;1.85;;
6426;SDS011;3246;42.664;23.308;2024-03-23T14:51:46;2.55;;;1.92;;
6426;SDS011;3246;42.664;23.308;2024-03-23T14:54:14;2.78;;;2.08;;
6426;SDS011;3246;42.664;23.308;2024-03-23T14:56:40;2.50;;;2.33;;
6426;SDS011;3246;42.664;23.308;2024-03-23T14:59:07;6.07;;;2.38;;
6426;SDS011;3246;42.664;23.308;2024-03-23T15:01:33;2.45;;;2.33;;
6426;SDS011;3246;42.664;23.308;2024-03-23T15:04:00;2.85;;;2.65;;
6426;SDS011;3246;42.664;23.308;2024-03-23T15:06:26;4.95;;;3.10;;
6426;SDS011;3246;42.664;23.308;2024-03-23T15:08:53;5.00;;;3.13;;
6426;SDS011;3246;42.664;23.308;2024-03-23T15:11:21;2.85;;;2.50;;
6426;SDS011;3246;42.664;23.308;2024-03-23T15:13:49;2.58;;;2.40;;
6426;SDS011;3246;42.664;23.308;2024-03-23T15:16:16;4.13;;;2.90;;
6426;SDS011;3246;42.664;23.308;2024-03-23T15:18:45;2.83;;;2.63;;
6426;SDS011;3246;42.664;23.308;2024-03-23T15:21:11;4.50;;;2.47;;
6426;SDS011;3246;42.664;23.308;2024-03-23T15:23:39;6.28;;;4.10;;
6426;SDS011;3246;42.664;23.308;2024-03-23T15:26:07;5.60;;;5.10;;
6426;SDS011;3246;42.664;23.308;2024-03-23T15:28:35;3.78;;;3.47;;
6426;SDS011;3246;42.664;23.308;2024-03-23T15:31:07;4.45;;;3.15;;
6426;SDS011;3246;42.664;23.308;2024-03-23T15:33:35;3.42;;;2.70;;
6426;SDS011;3246;42.664;23.308;2024-03-23T15:36:02;2.20;;;2.10;;
6426;SDS011;3246;42.664;23.308;2024-03-23T15:38:31;3.28;;;2.97;;
6426;SDS011;3246;42.664;23.308;2024-03-23T15:40:57;2.72;;;2.53;;
6426;SDS011;3246;42.664;23.308;2024-03-23T15:43:24;2.80;;;2.60;;
6426;SDS011;3246;42.664;23.308;2024-03-23T15:45:55;2.60;;;2.40;;